createdAt,value
2022-10-22T00:01:13.804Z,13.33
2022-10-22T00:03:44.906Z,13.50
2022-10-22T00:06:14.275Z,14.33
2022-10-22T00:08:42.399Z,12.57
2022-10-22T00:11:12.493Z,15.60
2022-10-22T00:13:40.766Z,15.30
2022-10-22T00:16:09.162Z,12.47
2022-10-22T00:18:37.335Z,16.53
2022-10-22T00:21:05.751Z,15.37
2022-10-22T00:23:35.520Z,11.47
2022-10-22T00:26:03.601Z,14.03
2022-10-22T00:28:31.773Z,11.90
2022-10-22T00:31:01.339Z,12.17
2022-10-22T00:33:30.608Z,12.67
2022-10-22T00:35:58.974Z,10.60
2022-10-22T00:38:27.098Z,11.40
2022-10-22T00:40:56.633Z,11.17
2022-10-22T00:43:24.799Z,14.80
2022-10-22T00:45:52.906Z,9.97
2022-10-22T00:48:23.566Z,19.37
2022-10-22T00:50:55.605Z,10.00
2022-10-22T00:53:26.599Z,10.93
2022-10-22T00:55:57.129Z,19.00
2022-10-22T00:58:27.491Z,12.87
2022-10-22T01:00:56.346Z,9.60
2022-10-22T01:03:24.466Z,10.70
2022-10-22T01:05:57.429Z,14.83
2022-10-22T01:08:29.923Z,11.83
2022-10-22T01:11:08.196Z,14.57
2022-10-22T01:13:46.041Z,11.87
2022-10-22T01:16:20.267Z,11.67
2022-10-22T01:18:53.552Z,12.20
2022-10-22T01:21:27.708Z,14.20
2022-10-22T01:24:27.125Z,14.50
2022-10-22T01:27:05.224Z,12.47
2022-10-22T01:29:38.829Z,15.67
2022-10-22T01:32:10.119Z,20.40
2022-10-22T01:34:40.271Z,11.40
2022-10-22T01:37:09.613Z,9.70
2022-10-22T01:39:38.157Z,9.97
2022-10-22T01:42:06.260Z,13.83
2022-10-22T01:44:37.604Z,9.97
2022-10-22T01:47:16.189Z,10.67
2022-10-22T01:50:07.497Z,10.10
2022-10-22T01:52:48.050Z,13.33
2022-10-22T01:55:22.112Z,9.90
2022-10-22T01:57:55.406Z,12.40
2022-10-22T02:00:25.002Z,13.63
2022-10-22T02:03:00.344Z,12.53
2022-10-22T02:05:31.623Z,14.37
2022-10-22T02:08:04.775Z,19.73
2022-10-22T02:10:33.562Z,11.30
2022-10-22T02:13:02.611Z,10.20
2022-10-22T02:15:34.599Z,10.57
2022-10-22T02:18:02.910Z,12.40
2022-10-22T02:20:33.179Z,10.40
2022-10-22T02:23:01.667Z,9.80
2022-10-22T02:25:33.249Z,11.00
2022-10-22T02:28:04.039Z,10.80
2022-10-22T02:30:35.124Z,11.70
2022-10-22T02:33:06.868Z,11.37
2022-10-22T02:35:35.466Z,11.00
2022-10-22T02:38:03.713Z,7.93
2022-10-22T02:40:32.562Z,9.17
2022-10-22T02:43:00.770Z,8.17
2022-10-22T02:45:28.875Z,12.83
2022-10-22T02:47:58.384Z,10.70
2022-10-22T02:50:26.394Z,9.20
2022-10-22T02:52:54.436Z,11.17
2022-10-22T02:55:23.009Z,9.90
2022-10-22T02:57:51.045Z,12.60
2022-10-22T03:00:19.316Z,8.97
2022-10-22T03:02:47.359Z,9.50
2022-10-22T03:05:16.881Z,11.97
2022-10-22T03:07:44.908Z,11.07
2022-10-22T03:10:13.037Z,11.00
2022-10-22T03:12:41.087Z,10.33
2022-10-22T03:15:09.633Z,9.03
2022-10-22T03:17:37.877Z,10.27
2022-10-22T03:20:06.797Z,14.80
2022-10-22T03:22:36.725Z,9.77
2022-10-22T03:25:08.726Z,14.20
2022-10-22T03:27:37.753Z,9.60
2022-10-22T03:30:08.508Z,10.63
2022-10-22T03:32:36.559Z,8.30
2022-10-22T03:35:05.644Z,13.63
2022-10-22T03:37:34.070Z,13.20
2022-10-22T03:40:03.919Z,9.30
2022-10-22T03:42:31.938Z,10.20
2022-10-22T03:45:00.087Z,9.40
2022-10-22T03:47:28.123Z,8.90
2022-10-22T03:49:56.182Z,9.90
2022-10-22T03:52:24.196Z,11.33
2022-10-22T03:54:52.302Z,10.23
2022-10-22T03:57:21.657Z,10.93
2022-10-22T03:59:51.011Z,13.83
2022-10-22T04:02:19.030Z,9.10
2022-10-22T04:04:47.070Z,8.37
2022-10-22T04:07:15.156Z,8.53
2022-10-22T04:09:43.184Z,15.13
2022-10-22T04:12:11.203Z,11.83
2022-10-22T04:14:40.643Z,16.13
2022-10-22T04:17:08.697Z,9.53
2022-10-22T04:19:36.861Z,14.40
2022-10-22T04:22:05.072Z,9.20
2022-10-22T04:24:33.878Z,12.73
2022-10-22T04:27:01.949Z,11.00
2022-10-22T04:29:30.003Z,11.43
2022-10-22T04:31:59.386Z,11.33
2022-10-22T04:34:29.643Z,10.37
2022-10-22T04:36:57.669Z,12.40
2022-10-22T04:39:25.719Z,9.97
2022-10-22T04:41:53.723Z,11.00
2022-10-22T04:44:21.752Z,9.10
2022-10-22T04:46:49.976Z,10.03
2022-10-22T04:49:19.861Z,13.33
2022-10-22T04:51:47.992Z,16.33
2022-10-22T04:54:17.176Z,12.43
2022-10-22T04:56:45.190Z,9.57
2022-10-22T04:59:13.857Z,11.73
2022-10-22T05:01:43.731Z,11.50
2022-10-22T05:04:13.809Z,9.40
2022-10-22T05:06:43.779Z,11.70
2022-10-22T05:09:15.077Z,11.07
2022-10-22T05:11:46.377Z,10.10
2022-10-22T05:14:14.497Z,11.93
2022-10-22T05:16:42.571Z,10.30
2022-10-22T05:19:16.804Z,10.17
2022-10-22T05:21:46.219Z,9.97
2022-10-22T05:24:14.594Z,10.67
2022-10-22T05:26:42.875Z,16.23
2022-10-22T05:29:10.904Z,10.60
2022-10-22T05:31:39.221Z,9.27
2022-10-22T05:34:07.282Z,10.73
2022-10-22T05:36:35.442Z,11.60
2022-10-22T05:39:05.080Z,10.97
2022-10-22T05:41:34.235Z,9.77
2022-10-22T05:44:02.396Z,14.50
2022-10-22T05:46:31.463Z,11.40
2022-10-22T05:49:01.106Z,11.97
2022-10-22T05:51:30.504Z,9.80
2022-10-22T05:54:00.166Z,13.03
2022-10-22T05:56:31.964Z,14.17
2022-10-22T05:59:00.509Z,12.57
2022-10-22T06:01:31.171Z,12.03
2022-10-22T06:04:01.373Z,10.70
2022-10-22T06:06:31.709Z,10.60
2022-10-22T06:09:02.778Z,12.23
2022-10-22T06:11:34.981Z,13.20
2022-10-22T06:14:03.476Z,15.60
2022-10-22T06:16:31.873Z,12.83
2022-10-22T06:19:00.833Z,10.43
2022-10-22T06:21:29.524Z,12.93
2022-10-22T06:23:58.098Z,13.87
2022-10-22T06:26:26.323Z,16.30
2022-10-22T06:28:55.856Z,14.13
2022-10-22T06:31:24.121Z,13.47
2022-10-22T06:33:52.294Z,11.50
2022-10-22T06:36:22.065Z,14.70
2022-10-22T06:38:52.791Z,12.20
2022-10-22T06:41:24.224Z,17.47
2022-10-22T06:43:57.598Z,12.40
2022-10-22T06:46:26.868Z,12.63
2022-10-22T06:48:56.384Z,11.13
2022-10-22T06:51:24.789Z,14.03
2022-10-22T06:53:52.778Z,15.13
2022-10-22T06:56:23.362Z,14.33
2022-10-22T06:58:52.601Z,19.27
2022-10-22T07:01:24.068Z,15.70
2022-10-22T07:03:52.786Z,16.67
2022-10-22T07:06:22.062Z,14.57
2022-10-22T07:08:50.274Z,18.43
2022-10-22T07:11:19.636Z,14.73
2022-10-22T07:13:48.257Z,14.40
2022-10-22T07:16:19.225Z,13.00
2022-10-22T07:18:49.621Z,16.50
2022-10-22T07:21:20.360Z,18.10
2022-10-22T07:23:48.551Z,18.00
2022-10-22T07:26:20.405Z,17.43
2022-10-22T07:28:48.721Z,16.97
2022-10-22T07:31:17.401Z,15.37
2022-10-22T07:33:45.977Z,13.87
2022-10-22T07:36:18.349Z,19.47
2022-10-22T07:38:47.193Z,20.30
2022-10-22T07:41:15.568Z,16.80
2022-10-22T07:43:44.146Z,16.43
2022-10-22T07:46:12.351Z,19.13
2022-10-22T07:48:40.480Z,15.97
2022-10-22T07:51:09.093Z,14.70
2022-10-22T07:53:38.812Z,14.27
2022-10-22T07:56:07.377Z,16.57
2022-10-22T07:58:35.611Z,17.20
2022-10-22T08:01:05.821Z,17.93
2022-10-22T08:03:34.061Z,19.07
2022-10-22T08:06:02.530Z,14.80
2022-10-22T08:08:31.261Z,16.00
2022-10-22T08:11:02.193Z,16.40
2022-10-22T08:13:31.555Z,16.63
2022-10-22T08:16:00.480Z,15.97
2022-10-22T08:18:28.959Z,13.90
2022-10-22T08:20:57.431Z,15.70
2022-10-22T08:23:27.467Z,14.13
2022-10-22T08:25:56.811Z,14.87
2022-10-22T08:28:28.562Z,12.70
2022-10-22T08:30:56.888Z,19.80
2022-10-22T08:33:24.903Z,17.20
2022-10-22T08:35:53.466Z,15.07
2022-10-22T08:38:21.917Z,17.13
2022-10-22T08:40:51.932Z,15.37
2022-10-22T08:43:42.389Z,17.97
2022-10-22T08:46:21.435Z,16.40
2022-10-22T08:48:51.142Z,16.67
2022-10-22T08:51:21.023Z,24.77
2022-10-22T08:54:23.602Z,19.00
2022-10-22T08:57:07.875Z,18.60
2022-10-22T08:59:44.169Z,17.37
2022-10-22T09:02:29.854Z,15.67
2022-10-22T09:05:03.771Z,19.20
2022-10-22T09:07:31.823Z,17.17
2022-10-22T09:10:01.065Z,18.70
2022-10-22T09:12:29.635Z,17.43
2022-10-22T09:14:59.051Z,19.10
2022-10-22T09:17:33.924Z,19.30
2022-10-22T09:20:11.147Z,24.10
2022-10-22T09:22:43.542Z,17.80
2022-10-22T09:25:19.109Z,23.87
2022-10-22T09:27:47.424Z,17.23
2022-10-22T09:30:19.270Z,20.10
2022-10-22T09:32:47.366Z,21.67
2022-10-22T09:35:16.276Z,17.17
2022-10-22T09:37:49.730Z,25.83
2022-10-22T09:40:18.102Z,24.87
2022-10-22T09:42:47.204Z,17.60
2022-10-22T09:45:20.981Z,22.53
2022-10-22T09:48:01.564Z,21.63
2022-10-22T09:50:38.717Z,21.17
2022-10-22T09:53:14.482Z,22.43
2022-10-22T09:55:43.878Z,16.70
2022-10-22T09:58:13.366Z,20.30
2022-10-22T10:00:45.592Z,18.30
2022-10-22T10:03:18.140Z,24.27
2022-10-22T10:05:49.335Z,22.67
2022-10-22T10:08:19.312Z,19.43
2022-10-22T10:10:50.316Z,18.30
2022-10-22T10:13:54.020Z,18.47
2022-10-22T10:16:42.603Z,20.03
2022-10-22T10:19:24.237Z,21.90
2022-10-22T10:22:02.013Z,22.67
2022-10-22T10:24:35.324Z,25.20
2022-10-22T10:27:07.323Z,20.63
2022-10-22T10:29:43.260Z,23.53
2022-10-22T10:32:27.406Z,20.93
2022-10-22T10:35:00.367Z,21.60
2022-10-22T10:37:30.960Z,25.27
2022-10-22T10:40:09.260Z,30.40
2022-10-22T10:42:40.950Z,26.93
2022-10-22T10:45:18.062Z,28.73
2022-10-22T10:48:03.078Z,24.57
2022-10-22T10:50:35.271Z,25.93
2022-10-22T10:53:14.170Z,27.47
2022-10-22T10:55:53.365Z,27.30
2022-10-22T10:58:27.302Z,25.67
2022-10-22T11:00:58.461Z,20.60
2022-10-22T11:03:52.151Z,21.80
2022-10-22T11:06:24.570Z,24.20
2022-10-22T11:08:57.724Z,22.00
2022-10-22T11:11:33.036Z,25.00
2022-10-22T11:14:05.128Z,26.80
2022-10-22T11:16:36.870Z,23.30
2022-10-22T11:19:11.291Z,23.70
2022-10-22T11:21:43.243Z,17.50
2022-10-22T11:24:14.943Z,23.87
2022-10-22T11:26:46.519Z,18.07
2022-10-22T11:29:17.507Z,21.80
2022-10-22T11:31:45.716Z,21.83
2022-10-22T11:34:35.303Z,27.27
2022-10-22T11:37:04.201Z,22.00
2022-10-22T11:39:37.898Z,22.17
2022-10-22T11:42:06.870Z,25.30
2022-10-22T11:44:47.904Z,21.87
2022-10-22T11:47:20.442Z,19.97
2022-10-22T11:49:59.597Z,24.30
2022-10-22T11:52:40.329Z,26.20
2022-10-22T11:55:31.951Z,23.77
2022-10-22T11:58:01.529Z,12.50
2022-10-22T12:00:36.787Z,10.70
2022-10-22T12:03:06.119Z,8.03
2022-10-22T12:05:40.391Z,7.63
2022-10-22T12:08:25.074Z,6.40
2022-10-22T12:11:01.664Z,5.07
2022-10-22T12:13:32.701Z,4.00
2022-10-22T12:16:04.117Z,7.83
2022-10-22T12:18:41.868Z,7.10
2022-10-22T12:21:13.965Z,4.40
2022-10-22T12:23:42.260Z,5.40
2022-10-22T12:26:24.543Z,6.10
2022-10-22T12:28:52.842Z,3.87
2022-10-22T12:31:20.872Z,3.63
2022-10-22T12:33:49.415Z,3.90
2022-10-22T12:36:19.904Z,3.60
2022-10-22T12:38:48.323Z,4.70
2022-10-22T12:41:16.513Z,3.47
2022-10-22T12:43:45.525Z,5.13
2022-10-22T12:46:14.679Z,3.90
2022-10-22T12:48:44.561Z,3.43
2022-10-22T12:51:19.571Z,2.93
2022-10-22T12:53:49.268Z,3.17
2022-10-22T12:56:22.321Z,3.50
2022-10-22T12:58:54.401Z,3.60
2022-10-22T13:01:22.532Z,3.07
2022-10-22T13:03:52.346Z,4.00
2022-10-22T13:06:27.078Z,3.50
2022-10-22T13:09:04.661Z,4.57
2022-10-22T13:11:34.751Z,3.80
2022-10-22T13:14:03.762Z,3.70
2022-10-22T13:16:33.242Z,3.70
2022-10-22T13:19:01.583Z,3.80
2022-10-22T13:21:35.330Z,3.60
2022-10-22T13:24:19.484Z,3.10
2022-10-22T13:26:50.353Z,6.27
2022-10-22T13:29:20.435Z,6.03
2022-10-22T13:31:49.998Z,4.37
2022-10-22T13:34:19.589Z,4.37
2022-10-22T13:36:49.245Z,4.07
2022-10-22T13:39:19.330Z,4.03
2022-10-22T13:41:50.340Z,4.10
2022-10-22T13:44:18.537Z,3.60
2022-10-22T13:46:47.003Z,4.57
2022-10-22T13:49:16.720Z,4.57
2022-10-22T13:51:45.359Z,3.47
2022-10-22T13:54:17.509Z,4.47
2022-10-22T13:56:45.710Z,5.40
2022-10-22T13:59:15.335Z,4.13
2022-10-22T14:01:46.500Z,4.83
2022-10-22T14:04:15.867Z,4.20
2022-10-22T14:06:44.238Z,4.07
2022-10-22T14:09:16.669Z,4.77
2022-10-22T14:11:44.811Z,4.20
2022-10-22T14:14:17.234Z,5.20
2022-10-22T14:16:45.621Z,4.20
2022-10-22T14:19:16.962Z,4.50
2022-10-22T14:21:45.185Z,5.30
2022-10-22T14:24:13.627Z,5.07
2022-10-22T14:26:43.232Z,5.70
2022-10-22T14:29:11.927Z,4.80
2022-10-22T14:31:42.587Z,4.70
2022-10-22T14:34:12.169Z,4.73
2022-10-22T14:36:40.537Z,4.50
2022-10-22T14:39:08.591Z,4.53
2022-10-22T14:41:36.979Z,5.50
2022-10-22T14:44:07.731Z,4.00
2022-10-22T14:46:35.790Z,5.00
2022-10-22T14:49:04.160Z,5.47
2022-10-22T14:51:32.189Z,3.70
2022-10-22T14:54:00.356Z,3.97
2022-10-22T14:56:28.485Z,3.37
2022-10-22T14:58:56.584Z,5.80
2022-10-22T15:01:26.223Z,4.50
2022-10-22T15:03:54.333Z,4.43
2022-10-22T15:06:22.727Z,3.93
2022-10-22T15:08:51.441Z,4.23
2022-10-22T15:11:19.802Z,3.90
2022-10-22T15:13:48.253Z,6.40
2022-10-22T15:16:18.374Z,3.63
2022-10-22T15:18:47.794Z,3.83
2022-10-22T15:21:17.163Z,3.17
2022-10-22T15:23:45.497Z,5.00
2022-10-22T15:26:14.494Z,3.30
2022-10-22T15:28:43.601Z,5.13
2022-10-22T15:31:14.580Z,7.03
2022-10-22T15:33:43.645Z,4.50
2022-10-22T15:36:15.439Z,5.20
2022-10-22T15:38:43.662Z,4.23
2022-10-22T15:41:13.598Z,6.77
2022-10-22T15:43:42.204Z,7.60
2022-10-22T15:46:13.185Z,6.43
2022-10-22T15:48:41.599Z,8.07
2022-10-22T15:51:11.635Z,5.10
2022-10-22T15:53:41.666Z,3.30
2022-10-22T15:56:11.728Z,4.43
2022-10-22T15:58:40.685Z,4.03
2022-10-22T16:01:11.858Z,2.13
2022-10-22T16:03:40.221Z,2.90
2022-10-22T16:06:09.550Z,2.33
2022-10-22T16:08:38.179Z,3.50
2022-10-22T16:11:07.674Z,2.50
2022-10-22T16:13:37.309Z,4.57
2022-10-22T16:16:07.295Z,2.90
2022-10-22T16:18:35.916Z,2.47
2022-10-22T16:21:05.018Z,2.80
2022-10-22T16:23:33.405Z,4.00
2022-10-22T16:26:02.836Z,3.70
2022-10-22T16:31:07.185Z,2.57
2022-10-22T16:33:41.513Z,5.00
2022-10-22T16:36:16.603Z,3.00
2022-10-22T16:38:45.697Z,3.07
2022-10-22T16:41:18.484Z,5.07
2022-10-22T16:43:56.031Z,2.90
2022-10-22T16:46:26.678Z,3.70
2022-10-22T16:48:55.648Z,3.50
2022-10-22T16:51:26.390Z,3.33
2022-10-22T16:53:55.752Z,3.63
2022-10-22T16:56:27.231Z,3.40
2022-10-22T16:59:03.546Z,3.77
2022-10-22T17:01:41.370Z,4.47
2022-10-22T17:04:11.268Z,3.43
2022-10-22T17:06:41.212Z,4.10
2022-10-22T17:09:12.235Z,3.67
2022-10-22T17:11:44.951Z,4.20
2022-10-22T17:14:18.238Z,4.97
2022-10-22T17:16:57.222Z,5.97
2022-10-22T17:19:40.008Z,8.37
2022-10-22T17:22:18.492Z,5.37
2022-10-22T17:24:50.483Z,5.50
2022-10-22T17:27:25.669Z,4.73
2022-10-22T17:30:02.315Z,2.70
2022-10-22T17:32:38.890Z,3.40
2022-10-22T17:35:10.192Z,4.60
2022-10-22T17:37:45.477Z,3.77
2022-10-22T17:40:23.854Z,4.03
2022-10-22T17:42:53.807Z,3.70
2022-10-22T17:45:29.665Z,4.23
2022-10-22T17:48:02.570Z,9.53
2022-10-22T17:50:32.515Z,3.10
2022-10-22T17:53:02.789Z,6.00
2022-10-22T17:55:37.379Z,3.57
2022-10-22T17:58:07.403Z,3.33
2022-10-22T18:00:43.263Z,5.37
2022-10-22T18:03:13.026Z,4.20
2022-10-22T18:05:47.671Z,3.13
2022-10-22T18:08:21.076Z,3.63
2022-10-22T18:10:52.351Z,3.83
2022-10-22T18:13:24.018Z,4.73
2022-10-22T18:15:58.852Z,4.30
2022-10-22T18:18:37.607Z,5.13
2022-10-22T18:21:07.137Z,7.00
2022-10-22T18:23:41.592Z,4.73
2022-10-22T18:26:13.250Z,4.03
2022-10-22T18:28:45.851Z,4.43
2022-10-22T18:31:28.003Z,5.00
2022-10-22T18:33:59.433Z,4.37
2022-10-22T18:36:38.884Z,3.87
2022-10-22T18:39:08.861Z,7.73
2022-10-22T18:41:39.071Z,4.43
2022-10-22T18:44:08.981Z,5.13
2022-10-22T18:46:50.277Z,8.93
2022-10-22T18:49:23.092Z,6.73
2022-10-22T18:51:54.253Z,4.57
2022-10-22T18:54:32.151Z,5.77
2022-10-22T18:57:04.514Z,3.80
2022-10-22T18:59:33.840Z,7.50
2022-10-22T19:02:19.934Z,4.00
2022-10-22T19:04:50.969Z,4.80
2022-10-22T19:07:29.651Z,4.40
2022-10-22T19:10:00.466Z,6.83
2022-10-22T19:12:30.916Z,5.20
2022-10-22T19:15:07.636Z,4.10
2022-10-22T19:17:45.795Z,3.63
2022-10-22T19:20:28.513Z,4.20
2022-10-22T19:23:02.641Z,4.50
2022-10-22T19:25:32.816Z,5.00
2022-10-22T19:28:02.936Z,6.87
2022-10-22T19:30:33.107Z,4.60
2022-10-22T19:33:03.736Z,4.33
2022-10-22T19:35:35.831Z,6.13
2022-10-22T19:40:51.915Z,6.83
2022-10-22T19:43:38.500Z,4.03
2022-10-22T19:46:08.409Z,5.57
2022-10-22T19:48:48.566Z,3.90
2022-10-22T19:51:21.995Z,4.90
2022-10-22T19:53:55.172Z,5.47
2022-10-22T19:56:27.089Z,4.83
2022-10-22T19:58:58.520Z,4.80
2022-10-22T20:01:34.371Z,3.60
2022-10-22T20:04:16.432Z,4.13
2022-10-22T20:06:48.074Z,4.53
2022-10-22T20:09:16.786Z,4.93
2022-10-22T20:11:49.768Z,3.77
2022-10-22T20:14:21.594Z,3.73
2022-10-22T20:16:51.163Z,3.90
2022-10-22T20:19:26.641Z,4.10
2022-10-22T20:24:31.881Z,6.63
2022-10-22T20:27:01.814Z,7.90
2022-10-22T20:29:29.957Z,3.63
2022-10-22T20:32:02.364Z,3.37
2022-10-22T20:34:37.798Z,5.33
2022-10-22T20:37:14.935Z,3.27
2022-10-22T20:39:43.822Z,3.77
2022-10-22T20:42:16.086Z,3.30
2022-10-22T20:44:48.409Z,3.30
2022-10-22T20:47:34.215Z,2.93
2022-10-22T20:50:26.456Z,5.57
2022-10-22T20:52:55.073Z,3.60
2022-10-22T20:55:24.100Z,4.53
2022-10-22T20:57:54.978Z,3.47
2022-10-22T21:00:23.228Z,4.53
2022-10-22T21:02:51.935Z,3.03
2022-10-22T21:05:29.943Z,2.53
2022-10-22T21:07:58.511Z,3.10
2022-10-22T21:10:32.371Z,3.03
2022-10-22T21:13:10.624Z,3.40
2022-10-22T21:15:40.226Z,3.37
2022-10-22T21:18:11.569Z,2.50
2022-10-22T21:20:44.999Z,3.17
2022-10-22T21:23:13.732Z,2.93
2022-10-22T21:25:44.046Z,2.50
2022-10-22T21:28:15.146Z,3.03
2022-10-22T21:30:46.194Z,2.63
2022-10-22T21:33:15.523Z,3.13
2022-10-22T21:35:52.394Z,6.53
2022-10-22T21:38:24.009Z,2.70
2022-10-22T21:40:58.818Z,3.83
2022-10-22T21:43:27.762Z,3.70
2022-10-22T21:46:07.749Z,3.33
2022-10-22T21:48:36.991Z,3.33
2022-10-22T21:51:15.831Z,4.33
2022-10-22T21:53:47.502Z,3.67
2022-10-22T21:56:17.703Z,3.13
2022-10-22T21:58:49.394Z,4.40
2022-10-22T22:01:17.992Z,3.27
2022-10-22T22:03:49.227Z,3.07
2022-10-22T22:06:23.779Z,3.23
2022-10-22T22:08:54.435Z,3.00
2022-10-22T22:11:25.411Z,2.90
2022-10-22T22:13:54.861Z,3.20
2022-10-22T22:16:28.423Z,3.83
2022-10-22T22:21:47.062Z,3.70
2022-10-22T22:24:23.254Z,4.27
2022-10-22T22:26:54.141Z,3.77
2022-10-22T22:29:24.951Z,6.80
2022-10-22T22:31:56.538Z,3.60
2022-10-22T22:34:27.440Z,3.83
2022-10-22T22:36:59.729Z,3.87
2022-10-22T22:39:29.489Z,2.80
2022-10-22T22:42:00.150Z,6.10
2022-10-22T22:44:29.245Z,4.70
2022-10-22T22:47:00.436Z,2.37
2022-10-22T22:49:35.591Z,2.83
2022-10-22T22:52:10.255Z,3.43
2022-10-22T22:54:42.284Z,4.80
2022-10-22T22:57:10.855Z,4.07
2022-10-22T22:59:38.962Z,2.90
2022-10-22T23:02:15.852Z,3.73
2022-10-22T23:04:44.146Z,4.80
2022-10-22T23:07:14.830Z,3.40
2022-10-22T23:09:42.930Z,2.53
2022-10-22T23:12:12.027Z,5.00
2022-10-22T23:14:40.096Z,3.43
2022-10-22T23:17:08.203Z,3.40
2022-10-22T23:19:36.311Z,2.63
2022-10-22T23:22:04.369Z,1.93
2022-10-22T23:24:33.770Z,4.70
2022-10-22T23:27:02.824Z,2.57
2022-10-22T23:29:32.244Z,1.93
2022-10-22T23:32:01.400Z,2.10
2022-10-22T23:34:30.483Z,2.67
2022-10-22T23:36:59.734Z,2.67
2022-10-22T23:39:29.517Z,4.07
2022-10-22T23:41:59.675Z,2.97
2022-10-22T23:44:28.079Z,2.37
2022-10-22T23:46:56.308Z,4.20
2022-10-22T23:49:24.454Z,2.80
2022-10-22T23:51:52.531Z,4.50
2022-10-22T23:54:20.695Z,4.00
2022-10-22T23:56:49.051Z,2.40
2022-10-22T23:59:18.443Z,2.00
